sensor_id;sensor_type;location;lat;lon;timestamp;pressure;altitude;pressure_sealevel;temperature;humidity
34370;BME280;20635;55.812;37.560;2022-08-19T00:01:56;100120.69;;;26.51;47.00
34370;BME280;20635;55.812;37.560;2022-08-19T00:04:29;100122.69;;;26.50;47.09
34370;BME280;20635;55.812;37.560;2022-08-19T00:06:58;100126.66;;;26.49;47.20
34370;BME280;20635;55.812;37.560;2022-08-19T00:09:25;100129.47;;;26.49;47.38
34370;BME280;20635;55.812;37.560;2022-08-19T00:11:53;100136.25;;;26.48;47.23
34370;BME280;20635;55.812;37.560;2022-08-19T00:14:21;100125.00;;;26.48;47.32
34370;BME280;20635;55.812;37.560;2022-08-19T00:16:47;100133.44;;;26.48;47.29
34370;BME280;20635;55.812;37.560;2022-08-19T00:19:14;100125.00;;;26.48;47.37
34370;BME280;20635;55.812;37.560;2022-08-19T00:21:41;100136.25;;;26.48;47.45
34370;BME280;20635;55.812;37.560;2022-08-19T00:24:08;100133.44;;;26.48;46.96
34370;BME280;20635;55.812;37.560;2022-08-19T00:26:35;100130.13;;;26.46;46.77
34370;BME280;20635;55.812;37.560;2022-08-19T00:29:01;100131.28;;;26.45;47.04
34370;BME280;20635;55.812;37.560;2022-08-19T00:31:27;100134.44;;;26.44;47.23
34370;BME280;20635;55.812;37.560;2022-08-19T00:33:54;100135.88;;;26.41;47.03
34370;BME280;20635;55.812;37.560;2022-08-19T00:36:20;100132.88;;;26.38;47.25
34370;BME280;20635;55.812;37.560;2022-08-19T00:38:46;100135.50;;;26.34;47.13
34370;BME280;20635;55.812;37.560;2022-08-19T00:41:14;100143.28;;;26.28;46.83
34370;BME280;20635;55.812;37.560;2022-08-19T00:43:41;100143.09;;;26.25;47.22
34370;BME280;20635;55.812;37.560;2022-08-19T00:46:07;100140.63;;;26.23;46.86
34370;BME280;20635;55.812;37.560;2022-08-19T00:48:33;100143.09;;;26.25;47.05
34370;BME280;20635;55.812;37.560;2022-08-19T00:51:00;100147.06;;;26.24;47.24
34370;BME280;20635;55.812;37.560;2022-08-19T00:53:28;100143.09;;;26.25;47.37
34370;BME280;20635;55.812;37.560;2022-08-19T00:55:58;100147.91;;;26.24;47.16
34370;BME280;20635;55.812;37.560;2022-08-19T00:58:27;100149.41;;;26.22;47.00
34370;BME280;20635;55.812;37.560;2022-08-19T01:00:54;100140.78;;;26.18;46.69
34370;BME280;20635;55.812;37.560;2022-08-19T01:03:21;100145.59;;;26.18;47.20
34370;BME280;20635;55.812;37.560;2022-08-19T01:05:49;100149.03;;;26.15;46.82
34370;BME280;20635;55.812;37.560;2022-08-19T01:08:17;100157.81;;;26.13;46.90
34370;BME280;20635;55.812;37.560;2022-08-19T01:10:52;100155.47;;;26.15;47.13
34370;BME280;20635;55.812;37.560;2022-08-19T01:13:23;100162.59;;;26.13;46.94
34370;BME280;20635;55.812;37.560;2022-08-19T01:16:03;100172.34;;;26.15;46.87
34370;BME280;20635;55.812;37.560;2022-08-19T01:18:30;100172.19;;;26.12;46.81
34370;BME280;20635;55.812;37.560;2022-08-19T01:21:02;100174.47;;;26.10;46.91
34370;BME280;20635;55.812;37.560;2022-08-19T01:23:30;100174.00;;;26.08;47.00
34370;BME280;20635;55.812;37.560;2022-08-19T01:26:20;100170.84;;;26.09;46.89
34370;BME280;20635;55.812;37.560;2022-08-19T01:28:49;100168.84;;;26.10;47.07
34370;BME280;20635;55.812;37.560;2022-08-19T01:31:20;100174.00;;;26.08;47.18
34370;BME280;20635;55.812;37.560;2022-08-19T01:33:48;100173.47;;;26.05;46.90
34370;BME280;20635;55.812;37.560;2022-08-19T01:36:19;100167.38;;;26.03;46.80
34370;BME280;20635;55.812;37.560;2022-08-19T01:38:48;100173.28;;;26.02;46.84
34370;BME280;20635;55.812;37.560;2022-08-19T01:41:14;100169.66;;;26.01;46.76
34370;BME280;20635;55.812;37.560;2022-08-19T01:43:42;100163.56;;;25.99;46.81
34370;BME280;20635;55.812;37.560;2022-08-19T01:46:08;100167.53;;;25.98;46.89
34370;BME280;20635;55.812;37.560;2022-08-19T01:48:37;100176.78;;;25.99;47.09
34370;BME280;20635;55.812;37.560;2022-08-19T01:51:04;100165.84;;;25.97;47.09
34370;BME280;20635;55.812;37.560;2022-08-19T01:53:30;100168.34;;;25.99;47.20
34370;BME280;20635;55.812;37.560;2022-08-19T01:55:56;100164.72;;;25.98;46.83
34370;BME280;20635;55.812;37.560;2022-08-19T01:58:29;100161.56;;;26.00;47.09
34370;BME280;20635;55.812;37.560;2022-08-19T02:00:57;100161.91;;;25.98;47.32
34370;BME280;20635;55.812;37.560;2022-08-19T02:03:22;100159.91;;;25.99;47.30
34370;BME280;20635;55.812;37.560;2022-08-19T02:05:54;100164.38;;;26.00;47.33
34370;BME280;20635;55.812;37.560;2022-08-19T02:08:20;100159.91;;;25.99;47.18
34370;BME280;20635;55.812;37.560;2022-08-19T02:10:46;100161.91;;;25.98;47.16
34370;BME280;20635;55.812;37.560;2022-08-19T02:13:13;100161.06;;;25.98;46.78
34370;BME280;20635;55.812;37.560;2022-08-19T02:15:39;100166.66;;;25.98;46.91
34370;BME280;20635;55.812;37.560;2022-08-19T02:18:06;100156.59;;;25.97;46.91
34370;BME280;20635;55.812;37.560;2022-08-19T02:20:34;100160.91;;;25.94;47.00
34370;BME280;20635;55.812;37.560;2022-08-19T02:23:01;100148.84;;;25.94;46.88
34370;BME280;20635;55.812;37.560;2022-08-19T02:25:27;100158.09;;;25.94;47.20
34370;BME280;20635;55.812;37.560;2022-08-19T02:27:53;100164.84;;;25.93;47.14
34370;BME280;20635;55.812;37.560;2022-08-19T02:30:20;100180.03;;;25.92;46.99
34370;BME280;20635;55.812;37.560;2022-08-19T02:32:46;100186.31;;;25.89;47.05
34370;BME280;20635;55.812;37.560;2022-08-19T02:35:13;100188.94;;;25.86;46.91
34370;BME280;20635;55.812;37.560;2022-08-19T02:37:41;100191.22;;;25.84;47.03
34370;BME280;20635;55.812;37.560;2022-08-19T02:40:27;100192.38;;;25.83;47.01
34370;BME280;20635;55.812;37.560;2022-08-19T02:42:53;100198.63;;;25.79;46.96
34370;BME280;20635;55.812;37.560;2022-08-19T02:45:19;100196.16;;;25.78;46.96
34370;BME280;20635;55.812;37.560;2022-08-19T02:47:45;100197.31;;;25.77;47.11
34370;BME280;20635;55.812;37.560;2022-08-19T02:50:11;100191.72;;;25.77;46.94
34370;BME280;20635;55.812;37.560;2022-08-19T02:52:38;100189.22;;;25.75;47.17
34370;BME280;20635;55.812;37.560;2022-08-19T02:55:04;100194.81;;;25.75;46.92
34370;BME280;20635;55.812;37.560;2022-08-19T02:57:31;100190.34;;;25.74;47.03
34370;BME280;20635;55.812;37.560;2022-08-19T02:59:58;100191.81;;;25.72;47.23
34370;BME280;20635;55.812;37.560;2022-08-19T03:02:24;100197.44;;;25.72;47.24
34370;BME280;20635;55.812;37.560;2022-08-19T03:04:49;100194.09;;;25.70;46.99
34370;BME280;20635;55.812;37.560;2022-08-19T03:07:17;100199.22;;;25.68;47.31
34370;BME280;20635;55.812;37.560;2022-08-19T03:09:44;100195.06;;;25.65;46.91
34370;BME280;20635;55.812;37.560;2022-08-19T03:12:10;100196.56;;;25.63;47.17
34370;BME280;20635;55.812;37.560;2022-08-19T03:14:37;100192.22;;;25.56;47.09
34370;BME280;20635;55.812;37.560;2022-08-19T03:17:03;100192.06;;;25.53;47.11
34370;BME280;20635;55.812;37.560;2022-08-19T03:19:30;100197.47;;;25.49;47.19
34370;BME280;20635;55.812;37.560;2022-08-19T03:21:57;100205.72;;;25.46;47.33
34370;BME280;20635;55.812;37.560;2022-08-19T03:24:24;100203.53;;;25.43;47.43
34370;BME280;20635;55.812;37.560;2022-08-19T03:26:54;100203.88;;;25.41;47.34
34370;BME280;20635;55.812;37.560;2022-08-19T03:29:28;100200.56;;;25.39;47.67
34370;BME280;20635;55.812;37.560;2022-08-19T03:31:54;100202.03;;;25.37;47.70
34370;BME280;20635;55.812;37.560;2022-08-19T03:34:23;100206.47;;;25.38;47.58
34370;BME280;20635;55.812;37.560;2022-08-19T03:36:53;100197.56;;;25.36;47.70
34370;BME280;20635;55.812;37.560;2022-08-19T03:39:20;100200.69;;;25.34;47.64
34370;BME280;20635;55.812;37.560;2022-08-19T03:41:48;100194.25;;;25.34;47.81
34370;BME280;20635;55.812;37.560;2022-08-19T03:44:18;100195.06;;;25.34;47.69
34370;BME280;20635;55.812;37.560;2022-08-19T03:46:57;100204.84;;;25.37;47.83
34370;BME280;20635;55.812;37.560;2022-08-19T03:49:26;100196.56;;;25.32;47.78
34370;BME280;20635;55.812;37.560;2022-08-19T03:51:56;100203.31;;;25.30;47.93
34370;BME280;20635;55.812;37.560;2022-08-19T03:54:24;100206.44;;;25.29;47.83
34370;BME280;20635;55.812;37.560;2022-08-19T03:56:52;100203.94;;;25.27;47.92
34370;BME280;20635;55.812;37.560;2022-08-19T03:59:28;100194.38;;;25.28;47.84
34370;BME280;20635;55.812;37.560;2022-08-19T04:01:56;100194.38;;;25.28;48.11
34370;BME280;20635;55.812;37.560;2022-08-19T04:04:23;100207.44;;;25.33;48.33
34370;BME280;20635;55.812;37.560;2022-08-19T04:06:50;100200.38;;;25.36;48.31
34370;BME280;20635;55.812;37.560;2022-08-19T04:09:20;100198.06;;;25.38;48.44
34370;BME280;20635;55.812;37.560;2022-08-19T04:11:49;100198.59;;;25.40;48.50
34370;BME280;20635;55.812;37.560;2022-08-19T04:14:19;100201.41;;;25.40;48.52
34370;BME280;20635;55.812;37.560;2022-08-19T04:16:46;100201.88;;;25.42;48.73
34370;BME280;20635;55.812;37.560;2022-08-19T04:19:14;100201.56;;;25.43;48.35
34370;BME280;20635;55.812;37.560;2022-08-19T04:21:49;100204.88;;;25.45;48.35
34370;BME280;20635;55.812;37.560;2022-08-19T04:24:35;100204.06;;;25.45;48.17
34370;BME280;20635;55.812;37.560;2022-08-19T04:27:01;100206.53;;;25.46;48.42
34370;BME280;20635;55.812;37.560;2022-08-19T04:29:29;100217.75;;;25.46;48.31
34370;BME280;20635;55.812;37.560;2022-08-19T04:31:56;100206.53;;;25.46;48.35
34370;BME280;20635;55.812;37.560;2022-08-19T04:34:26;100214.63;;;25.48;48.22
34370;BME280;20635;55.812;37.560;2022-08-19T04:36:54;100212.66;;;25.48;48.45
34370;BME280;20635;55.812;37.560;2022-08-19T04:39:27;100221.09;;;25.48;48.41
34370;BME280;20635;55.812;37.560;2022-08-19T04:42:17;100230.34;;;25.49;48.39
34370;BME280;20635;55.812;37.560;2022-08-19T04:45:07;100226.38;;;25.50;48.38
34370;BME280;20635;55.812;37.560;2022-08-19T04:47:37;100219.09;;;25.49;48.50
34370;BME280;20635;55.812;37.560;2022-08-19T04:50:03;100215.47;;;25.48;48.49
34370;BME280;20635;55.812;37.560;2022-08-19T04:52:30;100213.50;;;25.49;48.88
34370;BME280;20635;55.812;37.560;2022-08-19T04:54:57;100217.13;;;25.49;48.96
34370;BME280;20635;55.812;37.560;2022-08-19T04:57:24;100224.59;;;25.54;49.27
34370;BME280;20635;55.812;37.560;2022-08-19T04:59:54;100221.44;;;25.55;49.28
34370;BME280;20635;55.812;37.560;2022-08-19T05:02:20;100219.47;;;25.56;49.15
34370;BME280;20635;55.812;37.560;2022-08-19T05:04:49;100226.72;;;25.57;49.47
34370;BME280;20635;55.812;37.560;2022-08-19T05:07:14;100227.25;;;25.59;49.45
34370;BME280;20635;55.812;37.560;2022-08-19T05:09:40;100227.75;;;25.61;49.23
34370;BME280;20635;55.812;37.560;2022-08-19T05:12:06;100226.63;;;25.62;49.07
34370;BME280;20635;55.812;37.560;2022-08-19T05:14:32;100220.66;;;25.64;49.03
34370;BME280;20635;55.812;37.560;2022-08-19T05:16:58;100215.88;;;25.64;49.45
34370;BME280;20635;55.812;37.560;2022-08-19T05:19:24;100222.84;;;25.67;49.35
34370;BME280;20635;55.812;37.560;2022-08-19T05:22:08;100219.69;;;25.68;49.09
34370;BME280;20635;55.812;37.560;2022-08-19T05:24:52;100224.97;;;25.70;48.89
34370;BME280;20635;55.812;37.560;2022-08-19T05:27:18;100215.75;;;25.69;48.96
34370;BME280;20635;55.812;37.560;2022-08-19T05:29:44;100218.25;;;25.71;48.55
34370;BME280;20635;55.812;37.560;2022-08-19T05:32:10;100223.00;;;25.70;48.48
34370;BME280;20635;55.812;37.560;2022-08-19T05:34:36;100223.84;;;25.71;48.55
34370;BME280;20635;55.812;37.560;2022-08-19T05:37:04;100220.19;;;25.70;49.00
34370;BME280;20635;55.812;37.560;2022-08-19T05:39:33;100222.69;;;25.72;48.79
34370;BME280;20635;55.812;37.560;2022-08-19T05:42:02;100217.09;;;25.72;49.01
34370;BME280;20635;55.812;37.560;2022-08-19T05:44:30;100220.72;;;25.72;49.08
34370;BME280;20635;55.812;37.560;2022-08-19T05:46:58;100222.38;;;25.73;49.28
34370;BME280;20635;55.812;37.560;2022-08-19T05:49:25;100226.34;;;25.72;49.09
34370;BME280;20635;55.812;37.560;2022-08-19T05:51:52;100228.94;;;25.69;49.48
34370;BME280;20635;55.812;37.560;2022-08-19T05:54:21;100233.25;;;25.66;49.31
34370;BME280;20635;55.812;37.560;2022-08-19T05:56:49;100227.44;;;25.63;49.31
34370;BME280;20635;55.812;37.560;2022-08-19T05:59:16;100234.19;;;25.62;49.88
34370;BME280;20635;55.812;37.560;2022-08-19T06:01:44;100229.72;;;25.61;49.33
34370;BME280;20635;55.812;37.560;2022-08-19T06:04:12;100227.94;;;25.65;49.84
34370;BME280;20635;55.812;37.560;2022-08-19T06:06:39;100222.03;;;25.66;51.14
34370;BME280;20635;55.812;37.560;2022-08-19T06:09:07;100226.13;;;25.69;51.97
34370;BME280;20635;55.812;37.560;2022-08-19T06:11:45;100221.22;;;25.74;52.54
34370;BME280;20635;55.812;37.560;2022-08-19T06:14:15;100228.22;;;25.77;52.71
34370;BME280;20635;55.812;37.560;2022-08-19T06:16:42;100229.84;;;25.78;52.53
34370;BME280;20635;55.812;37.560;2022-08-19T06:19:13;100237.94;;;25.79;52.99
34370;BME280;20635;55.812;37.560;2022-08-19T06:21:40;100233.19;;;25.80;52.35
34370;BME280;20635;55.812;37.560;2022-08-19T06:24:09;100238.97;;;25.84;52.45
34370;BME280;20635;55.812;37.560;2022-08-19T06:26:37;100249.88;;;25.85;51.91
34370;BME280;20635;55.812;37.560;2022-08-19T06:29:04;100247.06;;;25.85;51.57
34370;BME280;20635;55.812;37.560;2022-08-19T06:31:32;100247.91;;;25.86;51.77
34370;BME280;20635;55.812;37.560;2022-08-19T06:34:04;100248.09;;;25.89;51.86
34370;BME280;20635;55.812;37.560;2022-08-19T06:36:32;100243.31;;;25.90;51.74
34370;BME280;20635;55.812;37.560;2022-08-19T06:39:14;100240.66;;;25.93;51.41
34370;BME280;20635;55.812;37.560;2022-08-19T06:41:44;100244.63;;;25.92;51.41
34370;BME280;20635;55.812;37.560;2022-08-19T06:44:17;100239.81;;;25.93;51.53
34370;BME280;20635;55.812;37.560;2022-08-19T06:46:44;100233.38;;;25.92;51.84
34370;BME280;20635;55.812;37.560;2022-08-19T06:49:10;100239.19;;;25.96;51.50
34370;BME280;20635;55.812;37.560;2022-08-19T06:51:43;100234.06;;;25.98;51.69
34370;BME280;20635;55.812;37.560;2022-08-19T06:54:09;100230.44;;;25.97;51.53
34370;BME280;20635;55.812;37.560;2022-08-19T06:56:36;100234.06;;;25.98;51.33
34370;BME280;20635;55.812;37.560;2022-08-19T06:59:04;100234.59;;;26.00;51.37
34370;BME280;20635;55.812;37.560;2022-08-19T07:01:35;100231.44;;;26.01;51.16
34370;BME280;20635;55.812;37.560;2022-08-19T07:04:04;100240.38;;;26.03;51.29
34370;BME280;20635;55.812;37.560;2022-08-19T07:06:30;100222.72;;;26.03;51.35
34370;BME280;20635;55.812;37.560;2022-08-19T07:08:57;100231.97;;;26.03;51.33
34370;BME280;20635;55.812;37.560;2022-08-19T07:11:23;100228.00;;;26.04;50.88
34370;BME280;20635;55.812;37.560;2022-08-19T07:13:49;100230.16;;;26.08;51.14
34370;BME280;20635;55.812;37.560;2022-08-19T07:16:18;100227.34;;;26.08;51.09
34370;BME280;20635;55.812;37.560;2022-08-19T07:18:46;100219.75;;;26.08;51.28
34370;BME280;20635;55.812;37.560;2022-08-19T07:21:22;100227.84;;;26.10;51.38
34370;BME280;20635;55.812;37.560;2022-08-19T07:23:49;100230.66;;;26.10;51.44
34370;BME280;20635;55.812;37.560;2022-08-19T07:26:21;100233.13;;;26.11;51.56
34370;BME280;20635;55.812;37.560;2022-08-19T07:28:49;100224.38;;;26.13;51.74
34370;BME280;20635;55.812;37.560;2022-08-19T07:31:18;100230.84;;;26.13;51.61
34370;BME280;20635;55.812;37.560;2022-08-19T07:33:45;100229.34;;;26.16;51.80
34370;BME280;20635;55.812;37.560;2022-08-19T07:36:14;100239.75;;;26.15;51.66
34370;BME280;20635;55.812;37.560;2022-08-19T07:38:42;100235.47;;;26.18;51.84
34370;BME280;20635;55.812;37.560;2022-08-19T07:41:11;100237.13;;;26.19;52.04
34370;BME280;20635;55.812;37.560;2022-08-19T07:43:38;100237.66;;;26.21;51.62
34370;BME280;20635;55.812;37.560;2022-08-19T07:46:04;100234.31;;;26.19;52.04
34370;BME280;20635;55.812;37.560;2022-08-19T07:48:30;100240.94;;;26.23;52.33
34370;BME280;20635;55.812;37.560;2022-08-19T07:51:00;100243.41;;;26.24;51.86
34370;BME280;20635;55.812;37.560;2022-08-19T07:53:28;100234.69;;;26.26;52.17
34370;BME280;20635;55.812;37.560;2022-08-19T07:55:55;100234.34;;;26.27;52.11
34370;BME280;20635;55.812;37.560;2022-08-19T07:58:27;100243.25;;;26.29;52.13
34370;BME280;20635;55.812;37.560;2022-08-19T08:00:53;100234.53;;;26.31;51.59
34370;BME280;20635;55.812;37.560;2022-08-19T08:03:21;100239.81;;;26.33;50.56
34370;BME280;20635;55.812;37.560;2022-08-19T08:06:07;100242.28;;;26.34;50.62
34370;BME280;20635;55.812;37.560;2022-08-19T08:08:51;100240.00;;;26.36;51.11
34370;BME280;20635;55.812;37.560;2022-08-19T08:11:37;100248.91;;;26.38;51.04
34370;BME280;20635;55.812;37.560;2022-08-19T08:14:03;100245.78;;;26.40;51.15
34370;BME280;20635;55.812;37.560;2022-08-19T08:16:34;100255.53;;;26.42;50.95
34370;BME280;20635;55.812;37.560;2022-08-19T08:19:01;100258.34;;;26.42;51.26
34370;BME280;20635;55.812;37.560;2022-08-19T08:21:26;100255.25;;;26.44;50.60
34370;BME280;20635;55.812;37.560;2022-08-19T08:23:53;100255.75;;;26.46;50.96
34370;BME280;20635;55.812;37.560;2022-08-19T08:26:20;100264.19;;;26.46;50.75
34370;BME280;20635;55.812;37.560;2022-08-19T08:28:46;100267.47;;;26.48;50.63
34370;BME280;20635;55.812;37.560;2022-08-19T08:31:13;100273.63;;;26.50;50.78
34370;BME280;20635;55.812;37.560;2022-08-19T08:33:40;100267.16;;;26.49;50.75
34370;BME280;20635;55.812;37.560;2022-08-19T08:36:08;100273.28;;;26.51;50.42
34370;BME280;20635;55.812;37.560;2022-08-19T08:38:35;100273.28;;;26.51;49.30
34370;BME280;20635;55.812;37.560;2022-08-19T08:43:45;100272.28;;;26.47;48.77
34370;BME280;20635;55.812;37.560;2022-08-19T08:48:54;100266.28;;;26.40;48.13
34370;BME280;20635;55.812;37.560;2022-08-19T08:51:32;100259.50;;;26.41;48.09
34370;BME280;20635;55.812;37.560;2022-08-19T08:54:00;100245.78;;;26.40;48.23
34370;BME280;20635;55.812;37.560;2022-08-19T08:56:27;100251.41;;;26.40;47.92
34370;BME280;20635;55.812;37.560;2022-08-19T08:59:09;100256.69;;;26.41;48.19
34370;BME280;20635;55.812;37.560;2022-08-19T09:01:36;100248.41;;;26.36;47.93
34370;BME280;20635;55.812;37.560;2022-08-19T09:04:06;100262.47;;;26.36;48.04
34370;BME280;20635;55.812;37.560;2022-08-19T09:09:49;100260.31;;;26.33;47.53
34370;BME280;20635;55.812;37.560;2022-08-19T09:12:39;100249.59;;;26.35;47.63
34370;BME280;20635;55.812;37.560;2022-08-19T09:15:14;100255.84;;;26.32;47.51
34370;BME280;20635;55.812;37.560;2022-08-19T09:17:41;100252.53;;;26.30;47.36
34370;BME280;20635;55.812;37.560;2022-08-19T09:22:38;100253.69;;;26.29;47.33
34370;BME280;20635;55.812;37.560;2022-08-19T09:25:06;100246.94;;;26.30;47.43
34370;BME280;20635;55.812;37.560;2022-08-19T09:27:35;100257.84;;;26.31;47.51
34370;BME280;20635;55.812;37.560;2022-08-19T09:30:03;100262.28;;;26.33;47.39
34370;BME280;20635;55.812;37.560;2022-08-19T09:32:30;100260.81;;;26.35;47.29
34370;BME280;20635;55.812;37.560;2022-08-19T09:34:56;100265.63;;;26.35;47.07
34370;BME280;20635;55.812;37.560;2022-08-19T09:37:24;100261.94;;;26.34;47.32
34370;BME280;20635;55.812;37.560;2022-08-19T09:39:50;100268.09;;;26.36;47.20
34370;BME280;20635;55.812;37.560;2022-08-19T09:42:16;100270.91;;;26.36;47.26
34370;BME280;20635;55.812;37.560;2022-08-19T09:44:43;100270.91;;;26.36;46.61
34370;BME280;20635;55.812;37.560;2022-08-19T09:47:10;100271.53;;;26.33;45.80
34370;BME280;20635;55.812;37.560;2022-08-19T09:49:38;100271.25;;;26.35;45.55
34370;BME280;20635;55.812;37.560;2022-08-19T09:52:08;100278.50;;;26.36;45.22
34370;BME280;20635;55.812;37.560;2022-08-19T09:54:34;100276.84;;;26.35;44.57
34370;BME280;20635;55.812;37.560;2022-08-19T09:57:00;100276.00;;;26.34;44.51
34370;BME280;20635;55.812;37.560;2022-08-19T09:59:26;100274.34;;;26.33;44.05
34370;BME280;20635;55.812;37.560;2022-08-19T10:01:52;100277.16;;;26.33;44.17
34370;BME280;20635;55.812;37.560;2022-08-19T10:04:19;100277.97;;;26.34;43.76
34370;BME280;20635;55.812;37.560;2022-08-19T10:06:47;100273.53;;;26.33;43.67
34370;BME280;20635;55.812;37.560;2022-08-19T10:09:16;100281.13;;;26.32;43.42
34370;BME280;20635;55.812;37.560;2022-08-19T10:11:44;100283.44;;;26.30;43.68
34370;BME280;20635;55.812;37.560;2022-08-19T10:14:15;100275.03;;;26.30;43.86
34370;BME280;20635;55.812;37.560;2022-08-19T10:16:42;100274.16;;;26.29;43.84
34370;BME280;20635;55.812;37.560;2022-08-19T10:19:08;100281.13;;;26.32;43.90
34370;BME280;20635;55.812;37.560;2022-08-19T10:21:35;100279.97;;;26.33;44.15
34370;BME280;20635;55.812;37.560;2022-08-19T10:24:03;100282.13;;;26.36;44.18
34370;BME280;20635;55.812;37.560;2022-08-19T10:26:35;100287.75;;;26.36;43.84
34370;BME280;20635;55.812;37.560;2022-08-19T10:29:04;100285.28;;;26.35;43.71
34370;BME280;20635;55.812;37.560;2022-08-19T10:31:32;100277.16;;;26.33;43.89
34370;BME280;20635;55.812;37.560;2022-08-19T10:33:59;100280.78;;;26.34;43.69
34370;BME280;20635;55.812;37.560;2022-08-19T10:36:29;100282.13;;;26.36;43.93
34370;BME280;20635;55.812;37.560;2022-08-19T10:38:57;100286.78;;;26.41;44.57
34370;BME280;20635;55.812;37.560;2022-08-19T10:41:30;100293.44;;;26.45;44.15
34370;BME280;20635;55.812;37.560;2022-08-19T10:44:04;100280.88;;;26.51;44.82
34370;BME280;20635;55.812;37.560;2022-08-19T10:46:31;100287.34;;;26.51;44.64
34370;BME280;20635;55.812;37.560;2022-08-19T10:48:59;100285.19;;;26.57;44.50
34370;BME280;20635;55.812;37.560;2022-08-19T10:51:25;100285.38;;;26.61;44.54
34370;BME280;20635;55.812;37.560;2022-08-19T10:54:10;100279.94;;;26.64;44.44
34370;BME280;20635;55.812;37.560;2022-08-19T10:56:36;100284.38;;;26.65;44.42
34370;BME280;20635;55.812;37.560;2022-08-19T10:59:23;100295.16;;;26.72;44.11
34370;BME280;20635;55.812;37.560;2022-08-19T11:01:50;100291.19;;;26.73;43.82
34370;BME280;20635;55.812;37.560;2022-08-19T11:04:18;100297.31;;;26.75;43.90
34370;BME280;20635;55.812;37.560;2022-08-19T11:06:47;100292.19;;;26.77;43.13
34370;BME280;20635;55.812;37.560;2022-08-19T11:09:16;100292.69;;;26.79;43.17
34370;BME280;20635;55.812;37.560;2022-08-19T11:11:43;100302.13;;;26.83;42.80
34370;BME280;20635;55.812;37.560;2022-08-19T11:14:11;100300.31;;;26.87;41.75
34370;BME280;20635;55.812;37.560;2022-08-19T11:16:56;100290.56;;;26.93;42.04
34370;BME280;20635;55.812;37.560;2022-08-19T11:19:22;100293.38;;;26.93;41.09
34370;BME280;20635;55.812;37.560;2022-08-19T11:21:50;100295.53;;;26.96;40.54
34370;BME280;20635;55.812;37.560;2022-08-19T11:24:22;100287.59;;;26.98;40.29
34370;BME280;20635;55.812;37.560;2022-08-19T11:26:50;100288.09;;;27.00;40.08
34370;BME280;20635;55.812;37.560;2022-08-19T11:29:19;100279.31;;;27.02;39.92
34370;BME280;20635;55.812;37.560;2022-08-19T11:31:46;100281.81;;;27.03;39.53
34370;BME280;20635;55.812;37.560;2022-08-19T11:34:17;100280.31;;;27.06;39.04
34370;BME280;20635;55.812;37.560;2022-08-19T11:36:45;100282.00;;;27.07;39.19
34370;BME280;20635;55.812;37.560;2022-08-19T11:39:14;100284.81;;;27.07;39.40
34370;BME280;20635;55.812;37.560;2022-08-19T11:41:40;100281.34;;;27.10;38.78
34370;BME280;20635;55.812;37.560;2022-08-19T11:44:07;100284.16;;;27.10;39.13
34370;BME280;20635;55.812;37.560;2022-08-19T11:46:34;100277.88;;;27.13;38.96
34370;BME280;20635;55.812;37.560;2022-08-19T11:49:02;100286.31;;;27.13;39.13
34370;BME280;20635;55.812;37.560;2022-08-19T11:51:29;100283.66;;;27.17;39.02
34370;BME280;20635;55.812;37.560;2022-08-19T11:53:58;100288.13;;;27.18;39.00
34370;BME280;20635;55.812;37.560;2022-08-19T11:56:26;100279.88;;;27.21;39.15
34370;BME280;20635;55.812;37.560;2022-08-19T11:58:54;100293.25;;;27.24;39.00
34370;BME280;20635;55.812;37.560;2022-08-19T12:01:21;100289.31;;;27.25;38.69
34370;BME280;20635;55.812;37.560;2022-08-19T12:03:49;100270.91;;;27.28;38.83
34370;BME280;20635;55.812;37.560;2022-08-19T12:06:21;100279.53;;;27.31;38.50
34370;BME280;20635;55.812;37.560;2022-08-19T12:08:52;100276.38;;;27.33;38.54
34370;BME280;20635;55.812;37.560;2022-08-19T12:11:19;100288.13;;;27.35;38.57
34370;BME280;20635;55.812;37.560;2022-08-19T12:13:45;100286.63;;;27.38;38.59
34370;BME280;20635;55.812;37.560;2022-08-19T12:16:14;100286.31;;;27.39;38.83
34370;BME280;20635;55.812;37.560;2022-08-19T12:18:42;100285.16;;;27.40;39.05
34370;BME280;20635;55.812;37.560;2022-08-19T12:21:19;100288.44;;;27.42;38.78
34370;BME280;20635;55.812;37.560;2022-08-19T12:23:48;100288.13;;;27.44;38.75
34370;BME280;20635;55.812;37.560;2022-08-19T12:26:15;100288.59;;;27.46;39.16
34370;BME280;20635;55.812;37.560;2022-08-19T12:28:42;100277.81;;;27.48;39.13
34370;BME280;20635;55.812;37.560;2022-08-19T12:31:09;100273.53;;;27.50;39.07
34370;BME280;20635;55.812;37.560;2022-08-19T12:33:38;100271.19;;;27.52;39.65
34370;BME280;20635;55.812;37.560;2022-08-19T12:36:07;100270.53;;;27.55;39.89
34370;BME280;20635;55.812;37.560;2022-08-19T12:38:33;100267.41;;;27.57;40.30
34370;BME280;20635;55.812;37.560;2022-08-19T12:41:03;100272.69;;;27.59;40.18
34370;BME280;20635;55.812;37.560;2022-08-19T12:43:32;100269.22;;;27.62;40.64
34370;BME280;20635;55.812;37.560;2022-08-19T12:45:58;100277.31;;;27.63;40.32
34370;BME280;20635;55.812;37.560;2022-08-19T12:48:24;100266.53;;;27.65;40.51
34370;BME280;20635;55.812;37.560;2022-08-19T12:50:50;100271.88;;;27.67;40.46
34370;BME280;20635;55.812;37.560;2022-08-19T12:53:16;100263.25;;;27.72;40.32
34370;BME280;20635;55.812;37.560;2022-08-19T12:55:42;100268.19;;;27.75;40.47
34370;BME280;20635;55.812;37.560;2022-08-19T12:58:11;100267.06;;;27.76;40.61
34370;BME280;20635;55.812;37.560;2022-08-19T13:00:38;100268.72;;;27.77;40.59